Time;durP1;ratioP1;P1;durP2;ratioP2;P2;SDS_P1;SDS_P2;PMS_P1;PMS_P2;Temp;Humidity;BMP_temperature;BMP_pressure;BME280_temperature;BME280_humidity;BME280_pressure;Samples;Min_cycle;Max_cycle;Signal;HPM_P1;HPM_P2
2022/09/13 00:00:34;;;;;;;2.85;2.42;;;;;;;23.36;43.63;94754.59;5024685;28;20013;-68
2022/09/13 00:03:00;;;;;;;4.30;2.53;;;;;;;23.45;43.85;94765.13;5023197;28;20053;-69
2022/09/13 00:05:26;;;;;;;4.53;2.45;;;;;;;23.33;43.80;94758.34;5028994;28;20086;-68
2022/09/13 00:07:51;;;;;;;4.95;2.70;;;;;;;22.95;43.91;94694.19;5033599;28;20532;-68
2022/09/13 00:10:17;;;;;;;3.22;2.40;;;;;;;23.45;44.17;94746.06;5022683;28;20107;-69
2022/09/13 00:12:42;;;;;;;4.50;2.30;;;;;;;22.97;44.03;94682.78;5022939;28;20094;-71
2022/09/13 00:15:08;;;;;;;3.65;2.17;;;;;;;22.94;43.85;94681.09;5035770;28;20859;-69
2022/09/13 00:17:34;;;;;;;4.93;2.40;;;;;;;23.49;43.97;94746.50;5021458;28;20049;-68
2022/09/13 00:19:59;;;;;;;2.70;2.03;;;;;;;23.08;44.51;94691.56;5023456;28;20853;-66
2022/09/13 00:22:26;;;;;;;3.03;2.30;;;;;;;22.77;44.15;94636.25;5022907;28;20037;-68
2022/09/13 00:24:51;;;;;;;3.88;2.38;;;;;;;23.56;43.97;94746.66;5023570;28;20026;-68
2022/09/13 00:27:16;;;;;;;3.22;2.30;;;;;;;23.53;44.44;94736.06;5022991;28;20493;-68
2022/09/13 00:29:42;;;;;;;3.83;2.17;;;;;;;22.75;43.73;94631.31;5023624;28;20590;-69
2022/09/13 00:32:07;;;;;;;4.35;2.70;;;;;;;22.74;43.87;94640.00;5027450;28;20038;-67
2022/09/13 00:34:33;;;;;;;2.60;2.30;;;;;;;23.47;43.85;94736.13;5029237;28;20505;-68
2022/09/13 00:36:58;;;;;;;2.92;2.30;;;;;;;23.45;44.19;94735.16;5035025;28;20021;-67
2022/09/13 00:39:24;;;;;;;3.58;2.40;;;;;;;23.40;43.97;94711.44;5026791;28;20042;-67
2022/09/13 00:41:49;;;;;;;3.67;2.40;;;;;;;23.42;43.80;94711.66;5029601;28;20422;-65
2022/09/13 00:44:48;;;;;;;5.68;2.45;;;;;;;23.52;44.03;94727.13;5026596;28;20091;-68
2022/09/13 00:47:15;;;;;;;3.95;2.58;;;;;;;22.80;44.46;94637.97;5006014;28;20050;-64
2022/09/13 00:49:40;;;;;;;3.88;2.75;;;;;;;23.00;44.30;94662.69;5014196;28;20343;-67
2022/09/13 00:52:09;;;;;;;3.42;2.30;;;;;;;23.09;44.65;94698.50;5021863;28;20525;-66
2022/09/13 00:54:48;;;;;;;4.77;2.63;;;;;;;23.42;44.04;94728.00;5017418;28;20519;-67
2022/09/13 00:57:13;;;;;;;4.57;2.75;;;;;;;23.37;44.74;94729.56;5016334;28;20053;-62
2022/09/13 01:00:12;;;;;;;4.63;2.40;;;;;;;23.44;44.64;94723.53;5005168;28;20115;-62
2022/09/13 01:02:58;;;;;;;2.43;1.93;;;;;;;23.38;44.12;94703.06;5020949;28;20209;-61
2022/09/13 01:05:31;;;;;;;3.45;2.25;;;;;;;23.47;44.47;94721.75;5040824;28;20291;-62
2022/09/13 01:08:14;;;;;;;3.67;2.30;;;;;;;23.44;44.28;94717.34;5024321;28;20128;-62
2022/09/13 01:10:54;;;;;;;3.10;2.33;;;;;;;23.48;44.33;94715.03;5024318;28;20029;-62
2022/09/13 01:13:31;;;;;;;3.65;2.50;;;;;;;23.51;44.30;94717.50;5015216;28;20058;-62
2022/09/13 01:15:57;;;;;;;3.60;2.50;;;;;;;23.56;43.94;94721.38;5031613;22;20077;-68
2022/09/13 01:18:23;;;;;;;4.78;2.92;;;;;;;22.86;44.59;94635.91;5001111;28;20044;-63
2022/09/13 01:21:11;;;;;;;4.03;2.60;;;;;;;23.49;44.48;94719.25;5026097;28;20425;-69
2022/09/13 01:24:07;;;;;;;3.53;2.55;;;;;;;23.53;44.07;94730.59;5025443;28;20042;-68
2022/09/13 01:27:11;;;;;;;3.10;2.28;;;;;;;23.63;44.56;94720.78;5021616;28;20244;-67
2022/09/13 01:30:02;;;;;;;3.65;2.60;;;;;;;23.55;44.08;94720.63;4956767;28;20062;-68
2022/09/13 01:32:41;;;;;;;2.97;2.25;;;;;;;23.49;44.16;94711.06;4958804;28;20081;-68
2022/09/13 01:35:21;;;;;;;5.70;2.63;;;;;;;22.91;44.47;94633.84;4990447;28;20034;-69
2022/09/13 01:38:12;;;;;;;3.75;2.60;;;;;;;23.38;44.44;94701.06;4999829;28;20034;-68
2022/09/13 01:40:47;;;;;;;5.05;2.90;;;;;;;23.45;44.05;94718.81;4953820;28;20514;-69
2022/09/13 01:43:19;;;;;;;2.95;2.30;;;;;;;23.41;44.29;94707.47;5000536;28;20056;-69
2022/09/13 01:46:00;;;;;;;2.85;2.25;;;;;;;23.38;44.36;94708.50;5021593;28;20086;-68
2022/09/13 01:48:45;;;;;;;3.10;2.28;;;;;;;23.38;44.30;94708.50;5005141;28;20046;-67
2022/09/13 01:51:25;;;;;;;3.83;2.40;;;;;;;22.83;44.39;94654.00;4998316;28;20049;-68
2022/09/13 01:54:35;;;;;;;3.13;2.40;;;;;;;23.38;44.50;94703.06;4999498;28;20179;-70
2022/09/13 01:57:28;;;;;;;3.10;2.45;;;;;;;23.45;44.45;94710.63;4997120;28;20054;-65
2022/09/13 02:00:07;;;;;;;2.85;2.22;;;;;;;23.26;44.49;94701.72;4980732;28;20046;-69
2022/09/13 02:02:40;;;;;;;4.27;2.20;;;;;;;23.26;44.54;94712.63;4981371;28;20049;-66
2022/09/13 02:05:15;;;;;;;5.03;2.50;;;;;;;22.93;44.54;94646.94;5001310;28;20291;-68
2022/09/13 02:07:41;;;;;;;2.95;2.30;;;;;;;22.57;44.44;94647.63;4980072;28;20034;-67
2022/09/13 02:10:17;;;;;;;4.13;2.45;;;;;;;22.58;44.61;94605.56;4988033;28;20121;-69
2022/09/13 02:12:44;;;;;;;3.10;2.60;;;;;;;22.74;44.85;94634.56;4984715;28;20035;-69
2022/09/13 02:15:19;;;;;;;4.07;2.50;;;;;;;23.04;45.01;94680.22;4965108;28;20501;-68
2022/09/13 02:17:51;;;;;;;5.45;2.75;;;;;;;23.14;44.51;94694.22;4954350;28;20059;-70
2022/09/13 02:20:20;;;;;;;2.95;2.40;;;;;;;23.00;44.60;94685.25;4978257;28;20099;-67
2022/09/13 02:22:48;;;;;;;5.13;2.53;;;;;;;23.18;45.12;94700.84;5000871;28;20362;-69
2022/09/13 02:25:15;;;;;;;5.55;2.40;;;;;;;23.16;45.04;94703.34;4968555;28;20552;-63
2022/09/13 02:27:42;;;;;;;3.50;2.60;;;;;;;23.10;44.95;94705.41;4974865;28;20037;-66
2022/09/13 02:30:09;;;;;;;3.97;2.55;;;;;;;22.44;44.73;94601.28;4965362;28;20038;-68
2022/09/13 02:32:36;;;;;;;3.47;2.70;;;;;;;23.20;44.91;94706.53;4979626;28;20042;-66
2022/09/13 02:35:08;;;;;;;3.30;2.63;;;;;;;22.44;45.09;94595.84;4983642;28;20046;-68
2022/09/13 02:37:35;;;;;;;3.60;2.53;;;;;;;23.18;44.70;94700.09;4996196;28;20145;-68
2022/09/13 02:40:05;;;;;;;5.13;2.80;;;;;;;22.72;44.57;94637.03;4964418;28;20117;-67
2022/09/13 02:42:43;;;;;;;;;;;;;;;23.19;44.75;94713.22;4942647;28;20034;-66
2022/09/13 02:45:08;;;;;;;4.05;2.70;;;;;;;23.05;44.88;94703.50;4999398;28;19926;-67
2022/09/13 02:47:55;;;;;;;3.67;2.50;;;;;;;22.66;44.83;94644.53;4969361;28;20050;-68
2022/09/13 02:50:36;;;;;;;3.42;2.53;;;;;;;23.01;45.00;94711.22;4958087;28;20513;-69
2022/09/13 02:53:33;;;;;;;5.47;2.42;;;;;;;23.02;45.18;94715.41;5005097;28;20073;-68
2022/09/13 02:56:21;;;;;;;3.20;2.40;;;;;;;23.07;44.96;94711.88;4960493;28;20109;-67
2022/09/13 02:59:00;;;;;;;3.90;2.60;;;;;;;23.05;44.84;94711.66;4984366;28;20838;-68
2022/09/13 03:01:26;;;;;;;3.40;2.42;;;;;;;22.94;44.78;94702.88;4970500;28;20442;-67
2022/09/13 03:03:53;;;;;;;4.05;2.58;;;;;;;22.96;45.30;94706.56;4984962;28;20072;-66
2022/09/13 03:06:25;;;;;;;3.72;2.40;;;;;;;22.70;45.00;94669.50;5005762;28;20084;-69
2022/09/13 03:08:52;;;;;;;3.67;2.47;;;;;;;22.89;45.12;94696.22;5001714;28;20050;-68
2022/09/13 03:11:24;;;;;;;4.40;2.20;;;;;;;22.95;45.14;94705.09;4963762;28;20542;-69
2022/09/13 03:14:11;;;;;;;3.33;2.60;;;;;;;22.36;44.80;94616.72;4987543;28;20082;-69
2022/09/13 03:16:47;;;;;;;3.90;2.08;;;;;;;22.96;45.12;94706.56;4983618;28;20045;-68
2022/09/13 03:19:43;;;;;;;3.05;2.08;;;;;;;22.88;45.07;94713.81;4974541;28;20046;-64
2022/09/13 03:22:19;;;;;;;2.75;2.10;;;;;;;22.27;45.21;94619.78;4984142;28;20037;-65
2022/09/13 03:25:00;;;;;;;2.40;1.90;;;;;;;22.82;45.14;94706.22;4988561;28;20034;-68
2022/09/13 03:27:32;;;;;;;3.03;2.38;;;;;;;22.11;45.21;94601.63;4998026;28;20454;-65
2022/09/13 03:30:08;;;;;;;3.15;2.33;;;;;;;22.30;44.87;94654.13;4975806;28;20129;-68
2022/09/13 03:33:14;;;;;;;3.92;2.50;;;;;;;22.70;45.03;94694.72;4995487;28;20042;-66
2022/09/13 03:36:05;;;;;;;3.22;2.20;;;;;;;22.75;44.95;94706.78;4987708;28;20507;-68
2022/09/13 03:38:58;;;;;;;3.67;2.28;;;;;;;22.14;45.02;94627.78;4989729;28;20096;-68
2022/09/13 03:41:26;;;;;;;2.97;2.38;;;;;;;22.63;45.25;94708.16;4970876;28;20043;-68
2022/09/13 03:44:00;;;;;;;2.63;2.05;;;;;;;22.46;45.07;94680.41;4952279;28;20130;-68
2022/09/13 03:46:43;;;;;;;2.95;2.35;;;;;;;22.38;45.25;94655.03;4966779;28;20100;-66
2022/09/13 03:49:14;;;;;;;3.05;2.17;;;;;;;22.32;44.89;94659.78;4944393;28;20108;-66
2022/09/13 03:51:40;;;;;;;3.42;2.20;;;;;;;22.01;45.26;94619.50;4980281;28;20066;-68
2022/09/13 03:54:31;;;;;;;4.53;2.20;;;;;;;22.72;45.50;94713.25;4971082;28;20522;-69
2022/09/13 03:57:07;;;;;;;3.88;1.92;;;;;;;21.97;44.96;94594.59;4981887;28;20069;-70
2022/09/13 03:59:35;;;;;;;4.60;2.10;;;;;;;22.80;44.90;94708.75;4985335;28;20069;-67
2022/09/13 04:02:01;;;;;;;4.50;2.20;;;;;;;22.54;44.74;94659.53;4985190;28;20073;-68
2022/09/13 04:04:27;;;;;;;3.28;2.00;;;;;;;22.70;45.26;94715.75;4996277;28;20088;-68
2022/09/13 04:06:55;;;;;;;3.42;2.30;;;;;;;22.50;44.82;94697.19;4997041;28;20037;-65
2022/09/13 04:09:23;;;;;;;5.63;2.15;;;;;;;22.27;45.17;94668.75;5004712;28;20037;-68
2022/09/13 04:11:49;;;;;;;3.15;2.30;;;;;;;22.60;45.00;94717.34;4996153;28;20125;-67
2022/09/13 04:14:15;;;;;;;3.50;2.30;;;;;;;22.51;45.35;94704.09;4998563;28;20041;-68
2022/09/13 04:16:40;;;;;;;3.20;2.22;;;;;;;22.58;45.21;94736.19;4991254;28;20037;-66
2022/09/13 04:19:06;;;;;;;2.65;1.98;;;;;;;22.47;45.43;94719.97;4998361;28;20629;-69
2022/09/13 04:21:32;;;;;;;3.05;2.20;;;;;;;22.16;45.04;94663.38;5004115;28;20771;-67
2022/09/13 04:23:57;;;;;;;4.40;2.67;;;;;;;22.42;45.25;94701.72;5004416;28;20037;-67
2022/09/13 04:26:22;;;;;;;2.88;2.25;;;;;;;22.50;45.51;94735.28;4996196;28;20047;-69
2022/09/13 04:28:48;;;;;;;3.42;2.13;;;;;;;22.27;45.27;94706.81;4992784;28;20057;-67
2022/09/13 04:31:13;;;;;;;7.47;2.45;;;;;;;21.93;45.53;94651.22;5001591;28;20049;-66
2022/09/13 04:33:40;;;;;;;5.65;2.47;;;;;;;22.41;45.30;94724.72;5004375;28;20025;-68
2022/09/13 04:36:05;;;;;;;4.00;2.40;;;;;;;22.43;45.28;94733.13;5003883;28;20038;-66
2022/09/13 04:38:31;;;;;;;4.13;2.35;;;;;;;22.02;44.78;94675.38;4984727;28;20669;-65
2022/09/13 04:40:56;;;;;;;3.08;2.35;;;;;;;22.34;45.29;94738.16;4972586;28;20038;-68
2022/09/13 04:43:22;;;;;;;3.90;2.40;;;;;;;21.97;45.19;94678.88;4989362;28;20426;-68
2022/09/13 04:45:48;;;;;;;3.47;2.28;;;;;;;21.84;45.24;94658.97;4981569;28;20421;-69
2022/09/13 04:48:14;;;;;;;5.20;2.42;;;;;;;22.45;45.20;94750.41;4989839;28;20026;-69
2022/09/13 04:50:39;;;;;;;3.60;2.40;;;;;;;22.45;45.67;94782.31;4983704;28;20045;-70
2022/09/13 04:53:05;;;;;;;3.53;2.30;;;;;;;21.94;45.15;94685.34;4996107;28;20042;-68
2022/09/13 04:55:30;;;;;;;4.70;2.58;;;;;;;21.60;45.18;94620.16;5003899;28;20136;-70
2022/09/13 04:57:56;;;;;;;5.47;2.65;;;;;;;22.13;45.38;94702.44;4998992;28;20040;-69
2022/09/13 05:00:22;;;;;;;5.63;2.58;;;;;;;22.43;45.56;94752.16;4984322;28;20030;-70
2022/09/13 05:02:47;;;;;;;4.57;2.58;;;;;;;22.37;45.33;94737.88;4997244;28;20038;-70
2022/09/13 05:05:13;;;;;;;4.22;2.50;;;;;;;21.92;45.49;94680.91;4997349;28;20034;-69
2022/09/13 05:07:39;;;;;;;4.20;2.30;;;;;;;22.36;45.36;94752.75;4976928;28;20042;-67
2022/09/13 05:10:05;;;;;;;4.47;2.67;;;;;;;22.43;45.39;94752.16;4995541;28;20056;-68
2022/09/13 05:12:30;;;;;;;4.82;2.50;;;;;;;22.22;45.16;94726.63;4990125;28;20128;-68
2022/09/13 05:14:56;;;;;;;4.55;2.83;;;;;;;21.87;44.96;94668.09;4983040;28;20042;-68
2022/09/13 05:17:21;;;;;;;5.50;2.70;;;;;;;22.12;44.85;94705.69;4982925;28;20438;-67
2022/09/13 05:19:48;;;;;;;4.88;2.53;;;;;;;22.57;45.45;94751.78;4982516;28;20495;-64
2022/09/13 05:22:13;;;;;;;3.70;2.33;;;;;;;22.48;45.09;94756.81;5001722;28;20295;-64
2022/09/13 05:24:39;;;;;;;4.75;2.50;;;;;;;22.55;45.13;94754.25;4992153;28;20026;-68
2022/09/13 05:27:04;;;;;;;4.28;2.50;;;;;;;22.21;44.67;94686.34;4984486;28;20053;-66
2022/09/13 05:29:30;;;;;;;4.80;2.55;;;;;;;22.57;45.33;94751.03;4983377;28;20066;-69
2022/09/13 05:31:55;;;;;;;5.47;2.40;;;;;;;22.72;45.25;94735.03;4981920;28;20434;-68
2022/09/13 05:34:20;;;;;;;4.63;2.40;;;;;;;22.60;45.13;94731.72;4984471;28;20043;-67
2022/09/13 05:36:51;;;;;;;3.97;2.55;;;;;;;22.86;44.95;94744.81;4983318;28;20022;-67
2022/09/13 05:39:17;;;;;;;5.15;2.40;;;;;;;22.57;44.55;94691.16;4984265;28;20097;-68
2022/09/13 05:41:42;;;;;;;2.83;2.10;;;;;;;23.23;43.88;94735.47;4965475;28;20038;-64
2022/09/13 05:44:08;;;;;;;4.35;2.08;;;;;;;22.95;44.30;94754.09;4981047;28;20167;-68
2022/09/13 05:46:33;;;;;;;4.68;2.10;;;;;;;22.78;44.31;94746.59;4983744;28;20042;-67
2022/09/13 05:49:00;;;;;;;3.53;2.10;;;;;;;23.28;43.60;94748.25;4964167;28;20018;-65
2022/09/13 05:51:25;;;;;;;4.00;2.20;;;;;;;23.26;43.79;94744.56;4979121;28;20635;-64
2022/09/13 05:53:51;;;;;;;3.47;2.25;;;;;;;23.54;43.09;94749.16;4983434;28;20093;-71
2022/09/13 05:56:19;;;;;;;2.10;1.70;;;;;;;23.77;42.81;94755.06;4963018;28;20130;-67
2022/09/13 05:58:46;;;;;;;5.88;2.17;;;;;;;23.56;42.90;94707.75;4961362;28;20046;-68
2022/09/13 06:01:12;;;;;;;3.75;1.95;;;;;;;23.87;42.31;94738.53;4980214;28;20598;-68
2022/09/13 06:03:38;;;;;;;2.75;2.08;;;;;;;23.40;42.67;94706.00;4963907;28;20121;-67
2022/09/13 06:06:04;;;;;;;3.85;2.00;;;;;;;24.05;41.87;94720.66;4980816;28;20061;-68
2022/09/13 06:08:30;;;;;;;2.58;2.05;;;;;;;23.80;41.63;94688.59;4982962;28;20066;-68
2022/09/13 06:10:57;;;;;;;2.63;2.05;;;;;;;24.21;41.64;94750.38;4985050;28;20049;-69
2022/09/13 06:13:23;;;;;;;4.63;2.20;;;;;;;24.21;41.19;94706.72;4965572;28;20038;-65
2022/09/13 06:15:48;;;;;;;6.75;1.80;;;;;;;24.68;41.01;94759.53;4982958;28;20061;-69
2022/09/13 06:18:14;;;;;;;4.38;2.00;;;;;;;24.29;41.19;94717.75;4985224;28;20031;-67
2022/09/13 06:20:40;;;;;;;4.07;2.00;;;;;;;24.50;40.92;94742.00;4984936;28;20051;-68
2022/09/13 06:23:05;;;;;;;4.45;2.10;;;;;;;24.45;40.60;94721.00;4985029;28;20098;-67
2022/09/13 06:25:31;;;;;;;2.95;2.00;;;;;;;24.54;40.79;94771.69;4984821;28;20038;-66
2022/09/13 06:27:57;;;;;;;3.63;2.03;;;;;;;24.20;40.89;94734.53;4984808;28;20137;-69
2022/09/13 06:30:22;;;;;;;2.42;1.92;;;;;;;24.82;40.26;94759.03;4985537;28;20034;-63
2022/09/13 06:32:48;;;;;;;2.80;1.88;;;;;;;24.27;40.88;94763.94;4984060;28;20061;-62
2022/09/13 06:35:13;;;;;;;3.15;1.92;;;;;;;24.10;40.79;94734.19;4983837;28;20038;-67
2022/09/13 06:37:39;;;;;;;2.70;1.90;;;;;;;24.76;40.12;94760.41;4984399;28;20093;-69
2022/09/13 06:40:05;;;;;;;3.63;2.00;;;;;;;24.81;40.63;94767.75;4969205;28;20023;-63
2022/09/13 06:42:33;;;;;;;3.65;1.80;;;;;;;24.64;40.25;94742.75;4985882;28;20527;-64
2022/09/13 06:44:59;;;;;;;2.70;2.00;;;;;;;24.69;40.71;94782.84;4984043;28;20144;-68
2022/09/13 06:47:24;;;;;;;3.42;1.65;;;;;;;24.55;40.17;94729.50;4984088;28;20039;-64
2022/09/13 06:49:50;;;;;;;5.85;2.03;;;;;;;25.02;40.31;94783.78;4985588;28;20121;-67
2022/09/13 06:52:15;;;;;;;3.10;2.00;;;;;;;25.22;39.86;94785.84;4976588;28;20054;-65
2022/09/13 06:54:41;;;;;;;2.67;1.90;;;;;;;24.92;39.83;94773.75;4984497;28;20034;-67
2022/09/13 06:57:06;;;;;;;3.75;2.03;;;;;;;25.19;39.84;94786.91;4983493;28;20030;-68
2022/09/13 06:59:33;;;;;;;2.80;2.00;;;;;;;24.39;41.18;94761.28;4983821;28;20034;-66
2022/09/13 07:01:59;;;;;;;3.22;2.05;;;;;;;25.23;39.73;94781.88;4984028;28;20034;-67
2022/09/13 07:04:24;;;;;;;2.40;1.80;;;;;;;25.09;39.14;94728.47;4984730;28;20026;-66
2022/09/13 07:06:50;;;;;;;3.13;2.00;;;;;;;25.31;38.79;94749.91;4984055;28;20535;-64
2022/09/13 07:09:17;;;;;;;2.65;2.15;;;;;;;25.75;38.84;94798.22;4977549;28;20555;-70
2022/09/13 07:11:43;;;;;;;2.70;1.75;;;;;;;25.83;38.28;94789.56;4983130;28;20846;-68
2022/09/13 07:14:19;;;;;;;2.70;1.80;;;;;;;25.17;39.08;94772.28;4983566;28;20506;-63
2022/09/13 07:16:45;;;;;;;4.45;1.98;;;;;;;24.95;40.10;94805.50;4977907;28;20100;-69
2022/09/13 07:19:17;;;;;;;3.00;1.98;;;;;;;24.37;40.94;94799.28;4984190;28;20050;-66
2022/09/13 07:21:43;;;;;;;2.40;1.80;;;;;;;24.82;39.95;94792.53;4982706;28;20490;-66
2022/09/13 07:24:09;;;;;;;4.45;2.10;;;;;;;24.77;39.13;94713.44;4983846;28;20058;-64
2022/09/13 07:26:34;;;;;;;2.33;1.80;;;;;;;24.37;40.11;94746.69;4965918;28;20094;-66
2022/09/13 07:29:01;;;;;;;2.88;1.70;;;;;;;25.46;39.01;94810.97;4984868;28;20045;-68
2022/09/13 07:31:29;;;;;;;2.40;1.77;;;;;;;24.68;40.42;94800.50;4983772;28;20050;-67
2022/09/13 07:33:59;;;;;;;2.50;1.73;;;;;;;24.14;41.16;94794.66;4983911;28;20122;-69
2022/09/13 07:36:25;;;;;;;4.60;2.13;;;;;;;24.32;40.23;94799.34;4951841;28;20030;-69
2022/09/13 07:38:50;;;;;;;4.05;2.10;;;;;;;24.37;39.55;94757.59;4965780;28;20061;-70
2022/09/13 07:41:18;;;;;;;4.82;2.33;;;;;;;24.28;40.50;94788.00;4984260;28;20042;-67
2022/09/13 07:43:43;;;;;;;2.75;1.90;;;;;;;24.96;39.17;94796.00;4983821;28;20084;-69
2022/09/13 07:46:14;;;;;;;5.35;2.10;;;;;;;24.54;39.34;94755.31;4983352;28;20140;-69
2022/09/13 07:48:40;;;;;;;2.45;1.98;;;;;;;24.31;39.97;94767.84;4964348;28;20030;-68
2022/09/13 07:51:07;;;;;;;3.78;1.88;;;;;;;24.81;39.84;94801.25;4984096;28;20523;-66
2022/09/13 07:53:33;;;;;;;3.05;1.70;;;;;;;23.93;39.89;94752.81;4983881;28;20061;-67
2022/09/13 07:56:02;;;;;;;2.55;1.80;;;;;;;24.51;39.57;94794.59;4983563;28;20030;-67
2022/09/13 07:58:28;;;;;;;2.97;1.90;;;;;;;25.02;39.92;94816.56;4965669;28;20127;-68
2022/09/13 08:00:54;;;;;;;4.30;2.00;;;;;;;24.18;39.44;94767.78;4983185;28;20557;-64
2022/09/13 08:03:19;;;;;;;5.45;2.05;;;;;;;24.08;40.07;94758.56;4966630;28;20042;-67
2022/09/13 08:05:45;;;;;;;2.50;1.88;;;;;;;24.15;39.41;94752.47;4983404;28;20451;-65
2022/09/13 08:08:10;;;;;;;3.08;1.90;;;;;;;24.70;39.29;94817.09;4965832;28;20046;-69
2022/09/13 08:10:36;;;;;;;2.22;1.58;;;;;;;24.42;39.38;94764.97;4982908;28;20558;-64
2022/09/13 08:13:01;;;;;;;3.85;1.85;;;;;;;24.95;39.00;94806.22;4981187;28;20041;-64
2022/09/13 08:15:27;;;;;;;3.72;1.90;;;;;;;24.31;39.03;94732.38;4983435;28;20054;-64
2022/09/13 08:17:52;;;;;;;3.88;2.17;;;;;;;24.02;39.09;94757.91;4962547;28;20031;-64
2022/09/13 08:20:19;;;;;;;3.05;2.10;;;;;;;24.21;39.20;94815.88;4984510;28;20046;-62
2022/09/13 08:22:44;;;;;;;2.58;1.83;;;;;;;24.37;38.95;94812.19;4999429;28;20049;-65
2022/09/13 08:25:10;;;;;;;3.58;2.17;;;;;;;24.23;39.01;94801.72;4966673;28;20559;-66
2022/09/13 08:27:35;;;;;;;4.28;1.70;;;;;;;24.18;38.83;94767.06;4983107;28;20018;-67
2022/09/13 08:30:01;;;;;;;3.47;1.92;;;;;;;24.27;38.26;94775.59;4981637;28;20700;-64
2022/09/13 08:32:27;;;;;;;2.60;1.60;;;;;;;24.55;38.10;94795.03;4981737;28;20157;-67
2022/09/13 08:34:52;;;;;;;3.72;1.90;;;;;;;24.41;37.58;94758.03;4982772;28;20049;-68
2022/09/13 08:37:18;;;;;;;2.60;1.67;;;;;;;24.36;37.15;94734.28;4983140;28;20097;-66
2022/09/13 08:39:43;;;;;;;2.75;1.60;;;;;;;25.38;36.44;94760.16;4980255;28;20042;-68
2022/09/13 08:42:30;;;;;;;2.83;1.50;;;;;;;26.06;35.47;94796.00;4981704;28;20116;-66
2022/09/13 08:44:56;;;;;;;2.30;1.40;;;;;;;25.58;36.27;94756.78;4982304;28;20084;-66
2022/09/13 08:47:37;;;;;;;2.53;1.58;;;;;;;26.21;35.81;94790.69;4965965;28;20144;-67
2022/09/13 08:50:11;;;;;;;2.17;1.60;;;;;;;24.94;37.29;94799.25;4965889;28;20065;-67
2022/09/13 08:52:56;;;;;;;2.63;1.42;;;;;;;24.50;36.79;94733.06;4992706;28;20045;-66
2022/09/13 08:55:32;;;;;;;2.20;1.55;;;;;;;24.46;37.46;94771.56;4983616;28;20050;-70
2022/09/13 08:58:48;;;;;;;2.35;1.40;;;;;;;24.90;36.53;94793.41;4969108;28;20022;-66
2022/09/13 09:01:47;;;;;;;2.72;1.52;;;;;;;24.98;36.24;94783.31;4984892;28;20038;-64
2022/09/13 09:05:09;;;;;;;2.63;1.30;;;;;;;25.12;36.60;94786.81;4980977;28;20050;-67
2022/09/13 09:07:38;;;;;;;3.05;1.30;;;;;;;24.95;36.29;94776.16;4930298;29;20047;-67
2022/09/13 09:10:21;;;;;;;2.00;1.40;;;;;;;24.46;36.44;94754.47;4950779;29;20038;-66
2022/09/13 09:13:29;;;;;;;2.25;1.27;;;;;;;24.83;36.32;94794.00;4954020;29;20023;-67
2022/09/13 09:16:05;;;;;;;2.70;1.20;;;;;;;25.11;36.30;94791.53;4953044;28;20053;-69
2022/09/13 09:18:38;;;;;;;1.95;1.30;;;;;;;26.43;34.31;94790.19;4982473;28;20033;-67
2022/09/13 09:21:06;;;;;;;2.17;1.55;;;;;;;26.46;33.89;94769.97;4958607;28;20046;-69
2022/09/13 09:23:59;;;;;;;3.00;1.08;;;;;;;25.92;34.77;94802.06;4987597;28;20111;-69
2022/09/13 09:26:28;;;;;;;2.85;1.25;;;;;;;25.92;34.67;94750.81;4977242;28;20043;-67
2022/09/13 09:28:59;;;;;;;3.20;1.60;;;;;;;25.74;34.90;94780.31;5005876;28;20038;-69
2022/09/13 09:31:34;;;;;;;3.38;1.38;;;;;;;26.46;33.73;94786.38;4979145;28;20112;-69
2022/09/13 09:34:25;;;;;;;2.20;1.30;;;;;;;26.52;33.30;94778.78;4983014;28;20084;-63
2022/09/13 09:37:23;;;;;;;3.13;1.35;;;;;;;26.70;33.06;94773.06;4987415;28;20070;-66
2022/09/13 09:39:49;;;;;;;3.60;1.25;;;;;;;26.08;32.70;94700.41;4986983;28;20053;-67
2022/09/13 09:42:27;;;;;;;2.45;1.48;;;;;;;26.79;33.09;94762.34;4994894;28;20023;-70
2022/09/13 09:45:17;;;;;;;1.45;1.20;;;;;;;26.72;32.75;94759.56;4974692;28;20097;-66
2022/09/13 09:47:46;;;;;;;3.30;1.58;;;;;;;26.34;32.54;94730.44;4968385;28;20038;-67
2022/09/13 09:50:15;;;;;;;2.90;1.48;;;;;;;25.58;33.78;94723.97;4949819;28;20046;-65
2022/09/13 09:52:41;;;;;;;2.30;1.20;;;;;;;28.06;29.76;94757.50;4947634;28;20126;-67
2022/09/13 09:55:14;;;;;;;3.83;1.83;;;;;;;27.57;29.90;94706.88;4980066;28;20062;-69
2022/09/13 09:57:54;;;;;;;4.40;1.67;;;;;;;28.56;28.54;94754.66;4977288;28;20700;-65
2022/09/13 10:00:22;;;;;;;2.17;1.58;;;;;;;28.57;29.00;94756.13;4979327;28;20696;-69
2022/09/13 10:02:47;;;;;;;2.08;1.20;;;;;;;28.52;28.97;94737.78;4980512;28;20062;-68
2022/09/13 10:05:13;;;;;;;2.90;1.38;;;;;;;28.56;29.03;94743.66;4963038;28;20047;-68
2022/09/13 10:07:38;;;;;;;4.70;1.52;;;;;;;28.49;28.33;94672.94;4962026;28;20050;-69
2022/09/13 10:10:07;;;;;;;1.80;1.40;;;;;;;28.74;29.21;94727.56;4961737;28;20865;-64
2022/09/13 10:12:34;;;;;;;4.07;1.58;;;;;;;28.36;29.43;94686.88;4984627;28;20034;-63
2022/09/13 10:15:15;;;;;;;2.55;1.58;;;;;;;28.52;29.85;94737.78;4956397;28;20169;-70
2022/09/13 10:17:40;;;;;;;2.15;1.42;;;;;;;26.68;31.39;94678.97;4984131;28;20038;-67
2022/09/13 10:20:12;;;;;;;2.28;1.42;;;;;;;28.09;29.44;94729.00;4983467;28;20053;-75
2022/09/13 10:22:37;;;;;;;2.10;1.50;;;;;;;27.77;29.68;94725.94;4990521;28;20053;-66
2022/09/13 10:25:21;;;;;;;3.15;1.50;;;;;;;27.77;30.99;94726.69;4964476;28;20363;-66
2022/09/13 10:27:49;;;;;;;2.40;1.52;;;;;;;27.43;31.58;94730.22;4980970;28;20026;-66
2022/09/13 10:30:46;;;;;;;3.20;1.67;;;;;;;27.09;32.46;94731.69;4964827;28;20038;-66
2022/09/13 10:33:38;;;;;;;2.17;1.77;;;;;;;27.33;32.05;94721.03;4981930;28;20069;-69
2022/09/13 10:36:12;;;;;;;2.90;1.60;;;;;;;26.44;33.20;94728.66;4973130;28;20247;-70
2022/09/13 10:38:39;;;;;;;2.78;1.50;;;;;;;25.60;34.13;94721.44;4980845;28;20034;-69
2022/09/13 10:41:06;;;;;;;3.28;1.50;;;;;;;25.15;34.41;94660.78;4980114;28;20044;-72
2022/09/13 10:43:32;;;;;;;4.32;1.52;;;;;;;25.42;34.69;94690.22;4980748;28;20054;-67
2022/09/13 10:45:58;;;;;;;4.05;1.88;;;;;;;25.67;34.29;94715.34;4964257;28;20069;-64
2022/09/13 10:48:23;;;;;;;3.63;1.85;;;;;;;25.65;34.32;94694.00;4965557;28;20022;-69
2022/09/13 10:51:03;;;;;;;3.70;1.40;;;;;;;25.79;34.28;94661.84;4964701;28;20787;-71
2022/09/13 10:53:32;;;;;;;2.72;1.60;;;;;;;26.20;33.99;94712.56;4964902;28;20415;-71
2022/09/13 10:55:58;;;;;;;2.35;1.73;;;;;;;25.89;34.45;94705.34;4984165;28;20060;-70
2022/09/13 10:58:23;;;;;;;2.00;1.60;;;;;;;25.70;34.60;94706.06;4985506;28;20046;-69
2022/09/13 11:01:09;;;;;;;1.75;1.48;;;;;;;25.32;34.34;94658.44;4985680;28;20061;-69
2022/09/13 11:03:43;;;;;;;2.22;1.73;;;;;;;25.32;34.59;94702.91;4970269;28;20015;-65
2022/09/13 11:06:23;;;;;;;4.53;1.52;;;;;;;25.41;34.00;94677.09;4984357;28;20042;-67
2022/09/13 11:09:03;;;;;;;3.70;1.95;;;;;;;25.74;33.84;94709.19;4981559;28;20134;-63
2022/09/13 11:11:42;;;;;;;2.63;1.90;;;;;;;25.69;33.47;94686.19;4995585;28;20112;-64
2022/09/13 11:14:16;;;;;;;2.45;1.45;;;;;;;25.81;33.47;94698.34;4958799;28;20390;-68
2022/09/13 11:16:51;;;;;;;1.50;1.35;;;;;;;25.95;32.49;94697.75;4961592;28;20043;-65
2022/09/13 11:19:20;;;;;;;1.92;1.50;;;;;;;26.58;31.52;94702.69;4965775;28;20478;-66
2022/09/13 11:21:57;;;;;;;1.77;1.30;;;;;;;26.20;32.60;94698.88;4965649;28;20038;-63
2022/09/13 11:24:54;;;;;;;1.60;1.50;;;;;;;26.46;31.59;94701.50;4963459;28;20061;-64
2022/09/13 11:27:38;;;;;;;1.60;1.40;;;;;;;26.40;31.29;94693.41;4947431;28;20190;-64
2022/09/13 11:30:17;;;;;;;2.03;1.48;;;;;;;25.73;31.61;94636.63;4964347;28;20039;-63
2022/09/13 11:33:04;;;;;;;1.98;1.05;;;;;;;25.95;32.36;94686.81;4945766;28;20130;-62
2022/09/13 11:35:45;;;;;;;1.55;1.27;;;;;;;26.33;31.56;94676.91;4949897;28;20039;-63
2022/09/13 11:38:16;;;;;;;1.80;1.10;;;;;;;26.21;31.57;94675.72;4963851;28;20065;-65
2022/09/13 11:41:04;;;;;;;2.83;1.30;;;;;;;25.64;31.79;94623.38;4964070;28;20046;-67
2022/09/13 11:43:57;;;;;;;1.80;1.20;;;;;;;25.81;32.53;94677.19;4961526;28;20046;-70
2022/09/13 11:47:10;;;;;;;2.42;1.20;;;;;;;26.24;31.55;94673.91;4960289;28;20050;-69
2022/09/13 11:49:54;;;;;;;2.03;1.38;;;;;;;25.61;32.99;94684.63;4919441;29;20047;-66
2022/09/13 11:52:25;;;;;;;1.92;1.48;;;;;;;25.39;33.50;94679.63;4918055;29;20047;-72
2022/09/13 11:54:57;;;;;;;2.08;1.15;;;;;;;25.40;32.88;94675.66;4952979;28;20128;-66
2022/09/13 11:57:25;;;;;;;2.40;1.27;;;;;;;25.17;32.73;94592.69;4964073;28;20051;-65